createdAt,value
2023-03-13T00:03:07.158Z,10.30
2023-03-13T00:08:08.555Z,10.23
2023-03-13T00:13:10.157Z,10.27
2023-03-13T00:18:11.725Z,10.28
2023-03-13T00:23:13.231Z,10.37
2023-03-13T00:28:14.583Z,10.37
2023-03-13T00:33:15.930Z,10.50
2023-03-13T00:38:17.261Z,10.49
2023-03-13T00:43:18.586Z,10.57
2023-03-13T00:48:19.974Z,10.70
2023-03-13T00:53:21.556Z,10.74
2023-03-13T00:58:24.160Z,10.76
2023-03-13T01:03:25.814Z,10.81
2023-03-13T01:08:28.765Z,10.86
2023-03-13T01:13:32.989Z,10.88
2023-03-13T01:18:35.722Z,10.95
2023-03-13T01:23:37.370Z,11.06
2023-03-13T01:28:39.497Z,11.16
2023-03-13T01:33:41.535Z,11.30
2023-03-13T01:38:43.254Z,11.26
2023-03-13T01:43:46.021Z,11.35
2023-03-13T01:49:05.932Z,11.42
2023-03-13T01:54:11.627Z,11.44
2023-03-13T01:59:16.964Z,11.45
2023-03-13T02:04:22.048Z,11.57
2023-03-13T02:09:27.047Z,11.44
2023-03-13T02:14:33.461Z,10.90
2023-03-13T02:19:40.634Z,10.62
2023-03-13T02:24:56.583Z,10.42
2023-03-13T02:29:59.320Z,10.49
2023-03-13T02:35:08.069Z,10.44
2023-03-13T02:40:12.661Z,10.44
2023-03-13T02:45:16.113Z,10.41
2023-03-13T02:50:17.892Z,10.40
2023-03-13T02:55:27.225Z,10.34
2023-03-13T03:00:28.656Z,10.39
2023-03-13T03:05:30.041Z,10.35
2023-03-13T03:10:31.387Z,10.28
2023-03-13T03:15:32.774Z,10.28
2023-03-13T03:20:34.118Z,10.25
2023-03-13T03:25:35.462Z,10.29
2023-03-13T03:30:36.838Z,10.37
2023-03-13T03:35:38.522Z,10.38
2023-03-13T03:40:40.063Z,10.37
2023-03-13T03:45:41.415Z,10.35
2023-03-13T03:50:43.453Z,10.34
2023-03-13T03:55:45.108Z,10.23
2023-03-13T04:00:48.150Z,10.13
2023-03-13T04:05:49.617Z,10.18
2023-03-13T04:10:51.376Z,10.11
2023-03-13T04:15:52.845Z,10.09
2023-03-13T04:21:05.545Z,10.12
2023-03-13T04:26:06.934Z,10.12
2023-03-13T04:31:08.568Z,10.16
2023-03-13T04:36:10.143Z,10.13
2023-03-13T04:41:11.520Z,10.22
2023-03-13T04:46:12.956Z,10.22
2023-03-13T04:51:14.408Z,10.20
2023-03-13T04:56:41.176Z,10.23
2023-03-13T05:01:43.871Z,10.21
2023-03-13T05:06:45.275Z,10.34
2023-03-13T05:11:46.627Z,10.44
2023-03-13T05:16:48.021Z,10.52
2023-03-13T05:21:49.438Z,10.61
2023-03-13T05:26:50.821Z,10.62
2023-03-13T05:31:54.676Z,10.71
2023-03-13T05:36:56.114Z,10.81
2023-03-13T05:41:57.595Z,10.92
2023-03-13T05:46:59.011Z,11.06
2023-03-13T05:52:00.440Z,11.25
2023-03-13T05:57:01.894Z,11.32
2023-03-13T06:02:03.537Z,11.40
2023-03-13T06:07:05.399Z,11.40
2023-03-13T06:12:08.749Z,11.43
2023-03-13T06:17:10.421Z,11.54
2023-03-13T06:22:12.055Z,11.59
2023-03-13T06:27:14.498Z,11.66
2023-03-13T06:32:16.322Z,11.68
2023-03-13T06:37:18.155Z,11.73
2023-03-13T06:42:19.792Z,11.76
2023-03-13T06:47:21.480Z,11.82
2023-03-13T06:52:28.746Z,11.89
2023-03-13T06:57:38.927Z,12.02
2023-03-13T07:02:40.415Z,12.14
2023-03-13T07:07:42.556Z,12.21
2023-03-13T07:12:44.463Z,12.34
2023-03-13T07:17:45.862Z,12.46
2023-03-13T07:22:51.837Z,12.60
2023-03-13T07:27:53.415Z,12.70
2023-03-13T07:32:54.874Z,12.80
2023-03-13T07:37:56.301Z,12.93
2023-03-13T07:42:57.642Z,13.02
2023-03-13T07:47:58.964Z,13.07
2023-03-13T07:53:00.447Z,13.17
2023-03-13T07:58:01.818Z,13.19
2023-03-13T08:03:04.884Z,13.26
2023-03-13T08:08:06.681Z,13.37
2023-03-13T08:13:08.034Z,13.45
2023-03-13T08:18:09.413Z,13.57
2023-03-13T08:23:10.781Z,13.66
2023-03-13T08:28:12.436Z,13.73
2023-03-13T08:33:13.820Z,13.85
2023-03-13T08:38:15.209Z,13.98
2023-03-13T08:43:16.655Z,14.12
2023-03-13T08:48:17.987Z,14.33
2023-03-13T08:53:19.356Z,14.48
2023-03-13T08:58:20.762Z,14.58
2023-03-13T09:03:22.295Z,14.64
2023-03-13T09:08:23.895Z,14.71
2023-03-13T09:13:27.092Z,14.80
2023-03-13T09:18:29.320Z,14.96
2023-03-13T09:23:30.773Z,15.11
2023-03-13T09:28:33.275Z,15.10
2023-03-13T09:33:34.996Z,15.17
2023-03-13T09:38:37.007Z,15.18
2023-03-13T09:44:08.702Z,15.27
2023-03-13T09:49:34.722Z,15.35
2023-03-13T09:55:03.464Z,15.54
2023-03-13T10:00:16.318Z,15.69
2023-03-13T10:05:22.318Z,15.78
2023-03-13T10:10:43.207Z,15.84
2023-03-13T10:15:58.130Z,15.83
2023-03-13T10:21:11.240Z,15.88
2023-03-13T10:26:21.087Z,16.22
2023-03-13T10:31:32.950Z,16.48
2023-03-13T10:36:46.486Z,16.60
2023-03-13T10:41:56.457Z,16.78
2023-03-13T10:47:02.408Z,16.78
2023-03-13T10:52:05.287Z,16.70
2023-03-13T10:57:18.741Z,16.81
2023-03-13T11:02:39.633Z,16.92
2023-03-13T11:07:41.067Z,16.91
2023-03-13T11:12:47.713Z,16.91
2023-03-13T11:18:06.473Z,16.91
2023-03-13T11:23:28.535Z,16.58
2023-03-13T11:28:43.253Z,16.63
2023-03-13T11:33:59.612Z,16.80
2023-03-13T11:39:17.076Z,16.88
2023-03-13T11:44:18.314Z,16.80
2023-03-13T11:49:56.724Z,16.89
2023-03-13T11:55:21.458Z,16.82
2023-03-13T12:00:33.351Z,16.98
2023-03-13T12:05:53.782Z,17.10
2023-03-13T12:11:09.256Z,17.08
2023-03-13T12:16:16.997Z,17.01
2023-03-13T12:21:37.935Z,16.88
2023-03-13T12:26:46.669Z,16.92
2023-03-13T12:31:59.906Z,16.88
2023-03-13T12:37:16.466Z,16.91
2023-03-13T12:42:39.958Z,16.80
2023-03-13T12:48:13.624Z,16.73
2023-03-13T12:53:51.353Z,16.77
2023-03-13T12:59:11.419Z,16.74
2023-03-13T13:04:17.699Z,16.51
2023-03-13T13:09:25.513Z,16.55
2023-03-13T13:14:26.858Z,16.52
2023-03-13T13:19:28.193Z,16.63
2023-03-13T13:24:50.813Z,17.01
2023-03-13T13:29:55.014Z,17.07
2023-03-13T13:35:16.845Z,17.14
2023-03-13T13:40:26.180Z,17.31
2023-03-13T13:45:35.580Z,17.53
2023-03-13T13:50:37.271Z,17.60
2023-03-13T13:55:38.589Z,17.88
2023-03-13T14:00:46.892Z,18.15
2023-03-13T14:05:53.275Z,18.21
2023-03-13T14:11:10.897Z,18.26
2023-03-13T14:16:26.401Z,18.43
2023-03-13T14:21:28.200Z,18.58
2023-03-13T14:26:30.248Z,18.49
2023-03-13T14:31:35.631Z,18.45
2023-03-13T14:36:51.641Z,18.60
2023-03-13T14:41:53.782Z,18.56
2023-03-13T14:46:58.103Z,18.51
2023-03-13T14:52:03.072Z,18.47
2023-03-13T14:57:17.778Z,18.33
2023-03-13T15:02:26.699Z,17.28
2023-03-13T15:07:52.339Z,16.78
2023-03-13T15:12:53.708Z,16.43
2023-03-13T15:17:55.172Z,15.03
2023-03-13T15:22:58.068Z,14.25
2023-03-13T15:27:59.408Z,14.02
2023-03-13T15:33:00.881Z,13.72
2023-03-13T15:38:02.950Z,13.65
2023-03-13T15:43:04.359Z,13.58
2023-03-13T15:48:15.524Z,13.56
2023-03-13T15:53:21.239Z,13.54
2023-03-13T15:58:22.872Z,13.55
2023-03-13T16:03:26.623Z,13.52
2023-03-13T16:08:36.999Z,13.58
2023-03-13T16:13:38.976Z,13.59
2023-03-13T16:18:40.861Z,13.62
2023-03-13T16:23:42.636Z,13.66
2023-03-13T16:28:44.995Z,13.65
2023-03-13T16:33:46.882Z,13.67
2023-03-13T16:38:48.835Z,13.66
2023-03-13T16:43:50.956Z,13.72
2023-03-13T16:48:53.943Z,13.68
2023-03-13T16:53:56.947Z,13.64
2023-03-13T16:58:58.488Z,13.61
2023-03-13T17:04:00.111Z,13.64
2023-03-13T17:09:02.147Z,13.68
2023-03-13T17:14:06.987Z,13.70
2023-03-13T17:19:13.517Z,13.65
2023-03-13T17:24:14.890Z,13.65
2023-03-13T17:29:18.798Z,13.62
2023-03-13T17:34:20.225Z,13.60
2023-03-13T17:39:24.402Z,13.66
2023-03-13T17:44:25.932Z,13.67
2023-03-13T17:49:29.456Z,13.71
2023-03-13T17:54:30.812Z,13.74
2023-03-13T17:59:32.192Z,13.74
2023-03-13T18:04:33.595Z,13.67
2023-03-13T18:09:35.074Z,13.68
2023-03-13T18:14:37.418Z,13.68
2023-03-13T18:19:38.822Z,13.76
2023-03-13T18:24:40.279Z,13.73
2023-03-13T18:29:42.605Z,13.59
2023-03-13T18:34:44.857Z,13.43
2023-03-13T18:39:46.276Z,13.46
2023-03-13T18:44:47.837Z,13.43
2023-03-13T18:55:34.617Z,13.46
2023-03-13T19:00:36.200Z,13.48
2023-03-13T19:05:37.622Z,13.51
2023-03-13T19:10:40.202Z,13.57
2023-03-13T19:15:41.606Z,13.60
2023-03-13T19:20:42.971Z,13.62
2023-03-13T19:25:44.316Z,13.66
2023-03-13T19:30:47.523Z,13.68
2023-03-13T19:35:48.904Z,13.77
2023-03-13T19:40:50.397Z,13.75
2023-03-13T19:45:51.771Z,13.67
2023-03-13T19:50:53.258Z,13.66
2023-03-13T19:55:54.604Z,13.60
2023-03-13T20:00:57.448Z,13.59
2023-03-13T20:11:24.531Z,13.34
2023-03-13T20:16:27.901Z,13.26
2023-03-13T20:21:38.815Z,13.19
2023-03-13T20:26:40.241Z,13.14
2023-03-13T20:31:41.610Z,13.10
2023-03-13T20:36:43.032Z,13.03
2023-03-13T20:41:44.354Z,12.96
2023-03-13T20:46:46.067Z,12.92
2023-03-13T20:51:47.472Z,12.88
2023-03-13T20:56:48.876Z,12.84
2023-03-13T21:01:50.268Z,12.76
2023-03-13T21:06:52.243Z,12.72
2023-03-13T21:11:53.591Z,12.72
2023-03-13T21:16:56.677Z,12.65
2023-03-13T21:21:58.238Z,12.63
2023-03-13T21:26:59.944Z,12.54
2023-03-13T21:32:01.461Z,12.50
2023-03-13T21:37:02.942Z,12.50
2023-03-13T21:42:04.349Z,12.39
2023-03-13T21:47:06.849Z,12.32
2023-03-13T21:52:08.331Z,12.27
2023-03-13T21:57:09.745Z,12.19
2023-03-13T22:02:12.991Z,12.11
2023-03-13T22:07:14.392Z,12.07
2023-03-13T22:12:17.456Z,12.05
2023-03-13T22:17:20.278Z,12.05
2023-03-13T22:22:22.289Z,12.03
2023-03-13T22:27:24.148Z,12.01
2023-03-13T22:32:25.873Z,12.01
2023-03-13T22:37:27.591Z,11.97
2023-03-13T22:42:29.168Z,11.97
2023-03-13T22:47:32.609Z,11.93
2023-03-13T22:52:34.064Z,11.97
2023-03-13T22:57:35.680Z,11.96
2023-03-13T23:02:37.107Z,11.95
2023-03-13T23:07:40.763Z,12.00
2023-03-13T23:12:42.457Z,11.99
2023-03-13T23:17:43.958Z,12.00
2023-03-13T23:22:47.552Z,11.98
2023-03-13T23:27:49.298Z,11.99
2023-03-13T23:32:50.673Z,12.05
2023-03-13T23:37:55.027Z,12.07
2023-03-13T23:42:56.473Z,12.10
2023-03-13T23:47:57.908Z,12.14
2023-03-13T23:52:59.306Z,12.21
2023-03-13T23:58:00.648Z,12.25
